RYR50XY LFMU-EGGW
Flight info
| Callsign | RYR50XY |
|---|---|
| Flight time | 1h 43m |
| Altitude | 36000 |
| Route | FJR DCT NG DCT MOLEN DCT MTL DCT ETREK DCT MADOT/N0438F380 DCT MOPEM DCT CACHI DCT AVLON DCT OKRIX DCT BRY DCT CLM DCT KOPOR DCT PIREG DCT SOSUN DCT SUBIP UM733 UNDUG |
| Aircraft | B738/M-SDE3FGILRWY/SB1 |
Departure
| Time | 2026-04-24 09:31 |
|---|---|
| Airport | Béziers Vias airport (LFMU) |
Arrival
| Time | 2026-04-24 11:14 |
|---|---|
| Airport | London Luton Airport (EGGW) |
| Time | Latitude | Longitude | Altitude | Speed | Heading |
|---|---|---|---|---|---|
| 2026-04-24 09:08 | 43.32133 | 3.35389 | 52 ft | 0 kts | 138° |
| 2026-04-24 09:27 | 43.32126 | 3.35385 | 57 ft | 1 kts | 212° |
| 2026-04-24 09:27 | 43.32135 | 3.35363 | 53 ft | 5 kts | 317° |
| 2026-04-24 09:27 | 43.32202 | 3.35320 | 58 ft | 16 kts | 355° |
| 2026-04-24 09:28 | 43.32308 | 3.35324 | 58 ft | 15 kts | 355° |
| 2026-04-24 09:28 | 43.32352 | 3.35209 | 56 ft | 14 kts | 277° |
| 2026-04-24 09:28 | 43.32361 | 3.35075 | 56 ft | 14 kts | 274° |
| 2026-04-24 09:28 | 43.32367 | 3.34945 | 58 ft | 14 kts | 274° |
| 2026-04-24 09:29 | 43.32374 | 3.34808 | 58 ft | 15 kts | 274° |
| 2026-04-24 09:29 | 43.32381 | 3.34656 | 58 ft | 20 kts | 274° |
| 2026-04-24 09:29 | 43.32392 | 3.34421 | 56 ft | 28 kts | 275° |
| 2026-04-24 09:29 | 43.32385 | 3.34214 | 56 ft | 9 kts | 271° |
| 2026-04-24 09:30 | 43.32420 | 3.34209 | 60 ft | 7 kts | 71° |
| 2026-04-24 09:30 | 43.32406 | 3.34281 | 61 ft | 12 kts | 97° |
| 2026-04-24 09:30 | 43.32379 | 3.34734 | 58 ft | 86 kts | 94° |
| 2026-04-24 09:30 | 43.32314 | 3.35871 | 60 ft | 150 kts | 90° |
| 2026-04-24 09:31 | 43.32254 | 3.37406 | 570 ft | 168 kts | 93° |
| 2026-04-24 09:31 | 43.32147 | 3.39040 | 1358 ft | 174 kts | 96° |
| 2026-04-24 09:31 | 43.32465 | 3.40784 | 1695 ft | 213 kts | 54° |
| 2026-04-24 09:31 | 43.33530 | 3.42354 | 2017 ft | 233 kts | 50° |
| 2026-04-24 09:32 | 43.34638 | 3.44031 | 2669 ft | 240 kts | 51° |
| 2026-04-24 09:32 | 43.35833 | 3.45647 | 3484 ft | 244 kts | 43° |
| 2026-04-24 09:32 | 43.37208 | 3.47157 | 4009 ft | 265 kts | 40° |
| 2026-04-24 09:32 | 43.38705 | 3.48736 | 4704 ft | 275 kts | 39° |
| 2026-04-24 09:33 | 43.40246 | 3.50347 | 5567 ft | 280 kts | 39° |
| 2026-04-24 09:33 | 43.41796 | 3.51975 | 6540 ft | 281 kts | 39° |
| 2026-04-24 09:33 | 43.43351 | 3.53622 | 7437 ft | 283 kts | 39° |
| 2026-04-24 09:33 | 43.44918 | 3.55293 | 8262 ft | 287 kts | 38° |
| 2026-04-24 09:34 | 43.46512 | 3.56996 | 9101 ft | 291 kts | 38° |
| 2026-04-24 09:34 | 43.48120 | 3.58729 | 9938 ft | 296 kts | 37° |
| 2026-04-24 09:34 | 43.49755 | 3.60495 | 10655 ft | 304 kts | 37° |
| 2026-04-24 09:34 | 43.50883 | 3.61714 | 10842 ft | 320 kts | 37° |
| 2026-04-24 09:35 | 43.51614 | 3.62506 | 10915 ft | 331 kts | 38° |
| 2026-04-24 09:35 | 43.53470 | 3.64519 | 11352 ft | 345 kts | 37° |
| 2026-04-24 09:35 | 43.55361 | 3.66574 | 12185 ft | 347 kts | 37° |
| 2026-04-24 09:35 | 43.57263 | 3.68643 | 12988 ft | 351 kts | 37° |
| 2026-04-24 09:36 | 43.59195 | 3.70748 | 13684 ft | 357 kts | 37° |
| 2026-04-24 09:36 | 43.61149 | 3.72878 | 14461 ft | 358 kts | 37° |
| 2026-04-24 09:36 | 43.63107 | 3.75015 | 15209 ft | 360 kts | 37° |
| 2026-04-24 09:36 | 43.65052 | 3.77141 | 15924 ft | 363 kts | 36° |
| 2026-04-24 09:37 | 43.67038 | 3.79311 | 16631 ft | 366 kts | 37° |
| 2026-04-24 09:37 | 43.69041 | 3.81503 | 17355 ft | 368 kts | 37° |
| 2026-04-24 09:37 | 43.71048 | 3.83701 | 18144 ft | 369 kts | 37° |
| 2026-04-24 09:37 | 43.73067 | 3.85914 | 18793 ft | 372 kts | 37° |
| 2026-04-24 09:38 | 43.75104 | 3.88148 | 19358 ft | 376 kts | 37° |
| 2026-04-24 09:38 | 43.77160 | 3.90406 | 19943 ft | 379 kts | 37° |
| 2026-04-24 09:38 | 43.79235 | 3.92686 | 20509 ft | 383 kts | 37° |
| 2026-04-24 09:38 | 43.81328 | 3.94989 | 21090 ft | 386 kts | 36° |
| 2026-04-24 09:39 | 43.83434 | 3.97308 | 21682 ft | 388 kts | 36° |
| 2026-04-24 09:39 | 43.85557 | 3.99648 | 22253 ft | 391 kts | 36° |
| 2026-04-24 09:39 | 43.87695 | 4.02006 | 22805 ft | 395 kts | 36° |
| 2026-04-24 09:39 | 43.89151 | 4.03614 | 23168 ft | 397 kts | 36° |
| 2026-04-24 09:40 | 43.89906 | 4.04448 | 23366 ft | 398 kts | 36° |
| 2026-04-24 09:40 | 43.92078 | 4.06849 | 23875 ft | 401 kts | 36° |
| 2026-04-24 09:40 | 43.94267 | 4.09271 | 24319 ft | 404 kts | 36° |
| 2026-04-24 09:40 | 43.96467 | 4.11708 | 24773 ft | 406 kts | 36° |
| 2026-04-24 09:41 | 43.98684 | 4.14166 | 25183 ft | 410 kts | 36° |
| 2026-04-24 09:41 | 44.00919 | 4.16645 | 25612 ft | 412 kts | 37° |
| 2026-04-24 09:41 | 44.03162 | 4.19137 | 26061 ft | 414 kts | 37° |
| 2026-04-24 09:41 | 44.05410 | 4.21637 | 26608 ft | 413 kts | 37° |
| 2026-04-24 09:42 | 44.07655 | 4.24136 | 27080 ft | 414 kts | 37° |
| 2026-04-24 09:42 | 44.09915 | 4.26654 | 27433 ft | 418 kts | 37° |
| 2026-04-24 09:42 | 44.12196 | 4.29197 | 27804 ft | 421 kts | 37° |
| 2026-04-24 09:42 | 44.14486 | 4.31755 | 28204 ft | 423 kts | 37° |
| 2026-04-24 09:43 | 44.16790 | 4.34329 | 28579 ft | 426 kts | 37° |
| 2026-04-24 09:43 | 44.19106 | 4.36920 | 28938 ft | 429 kts | 37° |
| 2026-04-24 09:43 | 44.21437 | 4.39531 | 29305 ft | 431 kts | 37° |
| 2026-04-24 09:43 | 44.23778 | 4.42155 | 29670 ft | 433 kts | 37° |
| 2026-04-24 09:44 | 44.26132 | 4.44797 | 30013 ft | 435 kts | 37° |
| 2026-04-24 09:44 | 44.28496 | 4.47454 | 30332 ft | 438 kts | 37° |
| 2026-04-24 09:44 | 44.30873 | 4.50127 | 30625 ft | 439 kts | 37° |
| 2026-04-24 09:44 | 44.32445 | 4.51897 | 30875 ft | 439 kts | 37° |
| 2026-04-24 09:45 | 44.35031 | 4.54811 | 31319 ft | 437 kts | 37° |
| 2026-04-24 09:45 | 44.37397 | 4.57481 | 31679 ft | 437 kts | 38° |
| 2026-04-24 09:45 | 44.39773 | 4.60162 | 31870 ft | 442 kts | 39° |
| 2026-04-24 09:46 | 44.42172 | 4.62875 | 32059 ft | 445 kts | 39° |
| 2026-04-24 09:46 | 44.44575 | 4.65596 | 32479 ft | 443 kts | 39° |
| 2026-04-24 09:46 | 44.46958 | 4.68296 | 32976 ft | 439 kts | 39° |
| 2026-04-24 09:46 | 44.49329 | 4.70985 | 33361 ft | 438 kts | 39° |
| 2026-04-24 09:47 | 44.51698 | 4.73672 | 33654 ft | 439 kts | 38° |
| 2026-04-24 09:47 | 44.54262 | 4.76008 | 33793 ft | 444 kts | 24° |
| 2026-04-24 09:47 | 44.57243 | 4.77194 | 33972 ft | 448 kts | 7° |
| 2026-04-24 09:47 | 44.60341 | 4.77171 | 34389 ft | 445 kts | 352° |
| 2026-04-24 09:48 | 44.63384 | 4.76495 | 34768 ft | 442 kts | 351° |
| 2026-04-24 09:48 | 44.66421 | 4.75758 | 34979 ft | 444 kts | 350° |
| 2026-04-24 09:48 | 44.69471 | 4.75013 | 35187 ft | 445 kts | 351° |
| 2026-04-24 09:48 | 44.72524 | 4.74286 | 35485 ft | 444 kts | 351° |
| 2026-04-24 09:49 | 44.75527 | 4.73590 | 35792 ft | 443 kts | 351° |
| 2026-04-24 09:49 | 44.78567 | 4.72901 | 36067 ft | 442 kts | 351° |
| 2026-04-24 09:49 | 44.81611 | 4.72221 | 36183 ft | 445 kts | 351° |
| 2026-04-24 09:49 | 44.83682 | 4.71760 | 36169 ft | 446 kts | 351° |
| 2026-04-24 09:50 | 44.87801 | 4.70845 | 36176 ft | 444 kts | 351° |
| 2026-04-24 09:50 | 44.93884 | 4.69491 | 36171 ft | 442 kts | 351° |
| 2026-04-24 09:51 | 44.99957 | 4.68133 | 36178 ft | 442 kts | 351° |
| 2026-04-24 09:51 | 45.06034 | 4.66771 | 36186 ft | 443 kts | 351° |
| 2026-04-24 09:52 | 45.12126 | 4.65403 | 36165 ft | 444 kts | 351° |
| 2026-04-24 09:52 | 45.18248 | 4.64025 | 36180 ft | 446 kts | 351° |
| 2026-04-24 09:53 | 45.24395 | 4.62628 | 36183 ft | 449 kts | 351° |
| 2026-04-24 09:53 | 45.29528 | 4.61451 | 36172 ft | 443 kts | 351° |
| 2026-04-24 09:54 | 45.35572 | 4.60061 | 36180 ft | 444 kts | 351° |
| 2026-04-24 09:54 | 45.41702 | 4.58649 | 36179 ft | 448 kts | 351° |
| 2026-04-24 09:55 | 45.44696 | 4.57959 | 36190 ft | 449 kts | 351° |
| 2026-04-24 09:55 | 45.50882 | 4.56532 | 36172 ft | 452 kts | 351° |
| 2026-04-24 09:56 | 45.57096 | 4.55095 | 36191 ft | 454 kts | 351° |
| 2026-04-24 09:56 | 45.63341 | 4.53646 | 36182 ft | 456 kts | 351° |
| 2026-04-24 09:57 | 45.69608 | 4.52190 | 36182 ft | 457 kts | 351° |
| 2026-04-24 09:57 | 45.75893 | 4.50728 | 36178 ft | 458 kts | 351° |
| 2026-04-24 09:58 | 45.82199 | 4.49261 | 36177 ft | 460 kts | 351° |
| 2026-04-24 09:58 | 45.88518 | 4.47787 | 36178 ft | 461 kts | 351° |
| 2026-04-24 09:59 | 45.94857 | 4.46304 | 36177 ft | 462 kts | 351° |
| 2026-04-24 09:59 | 46.00136 | 4.45067 | 36172 ft | 463 kts | 351° |
| 2026-04-24 10:00 | 46.03935 | 4.44175 | 36175 ft | 463 kts | 351° |
| 2026-04-24 10:00 | 46.10307 | 4.42676 | 36171 ft | 465 kts | 351° |
| 2026-04-24 10:01 | 46.16691 | 4.41171 | 36171 ft | 465 kts | 351° |
| 2026-04-24 10:01 | 46.23079 | 4.39661 | 36175 ft | 466 kts | 351° |
| 2026-04-24 10:02 | 46.29471 | 4.38100 | 36180 ft | 466 kts | 349° |
| 2026-04-24 10:02 | 46.35804 | 4.35982 | 36178 ft | 467 kts | 346° |
| 2026-04-24 10:03 | 46.42107 | 4.33674 | 36182 ft | 468 kts | 346° |
| 2026-04-24 10:03 | 46.48424 | 4.31401 | 36179 ft | 468 kts | 347° |
| 2026-04-24 10:04 | 46.54754 | 4.29164 | 36176 ft | 468 kts | 347° |
| 2026-04-24 10:04 | 46.60016 | 4.27313 | 36183 ft | 468 kts | 347° |
| 2026-04-24 10:05 | 46.64032 | 4.25897 | 36183 ft | 468 kts | 347° |
| 2026-04-24 10:05 | 46.70322 | 4.23674 | 36181 ft | 468 kts | 347° |
| 2026-04-24 10:06 | 46.79819 | 4.20305 | 36176 ft | 468 kts | 347° |
| 2026-04-24 10:07 | 46.86150 | 4.18052 | 36178 ft | 468 kts | 347° |
| 2026-04-24 10:07 | 46.92478 | 4.15795 | 36177 ft | 468 kts | 347° |
| 2026-04-24 10:08 | 46.98804 | 4.13532 | 36178 ft | 468 kts | 347° |
| 2026-04-24 10:08 | 47.05135 | 4.11263 | 36182 ft | 468 kts | 347° |
| 2026-04-24 10:09 | 47.11301 | 4.08263 | 36187 ft | 468 kts | 338° |
| 2026-04-24 10:09 | 47.17308 | 4.04568 | 36185 ft | 468 kts | 337° |
| 2026-04-24 10:10 | 47.20114 | 4.02831 | 36182 ft | 467 kts | 338° |
| 2026-04-24 10:10 | 47.25954 | 3.99290 | 36181 ft | 467 kts | 338° |
| 2026-04-24 10:11 | 47.31977 | 3.95694 | 36173 ft | 467 kts | 338° |
| 2026-04-24 10:11 | 47.37992 | 3.92109 | 36183 ft | 466 kts | 338° |
| 2026-04-24 10:12 | 47.43996 | 3.88516 | 36191 ft | 466 kts | 338° |
| 2026-04-24 10:12 | 47.49999 | 3.84913 | 36192 ft | 465 kts | 338° |
| 2026-04-24 10:13 | 47.55993 | 3.81307 | 36192 ft | 465 kts | 338° |
| 2026-04-24 10:13 | 47.61946 | 3.77734 | 36199 ft | 464 kts | 338° |
| 2026-04-24 10:14 | 47.67935 | 3.74142 | 36201 ft | 464 kts | 338° |
| 2026-04-24 10:14 | 47.73921 | 3.70540 | 36201 ft | 464 kts | 338° |
| 2026-04-24 10:15 | 47.76839 | 3.68780 | 36207 ft | 464 kts | 338° |
| 2026-04-24 10:15 | 47.82833 | 3.65157 | 36202 ft | 464 kts | 338° |
| 2026-04-24 10:16 | 47.88806 | 3.61537 | 36213 ft | 463 kts | 338° |
| 2026-04-24 10:16 | 47.94770 | 3.57916 | 36221 ft | 463 kts | 338° |
| 2026-04-24 10:17 | 48.00725 | 3.54279 | 36223 ft | 462 kts | 337° |
| 2026-04-24 10:17 | 48.06671 | 3.50619 | 36217 ft | 462 kts | 337° |
| 2026-04-24 10:18 | 48.12609 | 3.46953 | 36223 ft | 461 kts | 337° |
| 2026-04-24 10:18 | 48.18542 | 3.43284 | 36229 ft | 461 kts | 337° |
| 2026-04-24 10:19 | 48.24467 | 3.39611 | 36226 ft | 461 kts | 337° |
| 2026-04-24 10:19 | 48.30387 | 3.35933 | 36225 ft | 460 kts | 337° |
| 2026-04-24 10:20 | 48.33090 | 3.34250 | 36227 ft | 460 kts | 337° |
| 2026-04-24 10:20 | 48.39075 | 3.30518 | 36226 ft | 459 kts | 337° |
| 2026-04-24 10:21 | 48.44957 | 3.26814 | 36228 ft | 458 kts | 336° |
| 2026-04-24 10:21 | 48.50815 | 3.23071 | 36227 ft | 457 kts | 336° |
| 2026-04-24 10:22 | 48.56665 | 3.19324 | 36229 ft | 456 kts | 336° |
| 2026-04-24 10:22 | 48.62508 | 3.15578 | 36238 ft | 456 kts | 336° |
| 2026-04-24 10:23 | 48.68345 | 3.11829 | 36230 ft | 456 kts | 336° |
| 2026-04-24 10:23 | 48.74181 | 3.08071 | 36234 ft | 456 kts | 336° |
| 2026-04-24 10:24 | 48.80014 | 3.04305 | 36258 ft | 456 kts | 336° |
| 2026-04-24 10:24 | 48.85812 | 3.00423 | 36239 ft | 455 kts | 331° |
| 2026-04-24 10:25 | 48.88252 | 2.98404 | 36263 ft | 454 kts | 329° |
| 2026-04-24 10:25 | 48.93790 | 2.93448 | 36252 ft | 454 kts | 328° |
| 2026-04-24 10:26 | 48.99223 | 2.88551 | 36253 ft | 454 kts | 328° |
| 2026-04-24 10:26 | 49.04692 | 2.83698 | 36252 ft | 454 kts | 328° |
| 2026-04-24 10:27 | 49.10127 | 2.78903 | 36263 ft | 454 kts | 328° |
| 2026-04-24 10:27 | 49.15599 | 2.74070 | 36263 ft | 454 kts | 328° |
| 2026-04-24 10:28 | 49.21070 | 2.69222 | 36263 ft | 454 kts | 328° |
| 2026-04-24 10:28 | 49.26533 | 2.64366 | 36282 ft | 454 kts | 328° |
| 2026-04-24 10:29 | 49.31990 | 2.59503 | 36268 ft | 453 kts | 328° |
| 2026-04-24 10:29 | 49.37431 | 2.54642 | 36268 ft | 452 kts | 328° |
| 2026-04-24 10:30 | 49.39833 | 2.52491 | 36266 ft | 452 kts | 328° |
| 2026-04-24 10:30 | 49.45342 | 2.47550 | 36267 ft | 451 kts | 328° |
| 2026-04-24 10:31 | 49.50741 | 2.42673 | 36272 ft | 449 kts | 325° |
| 2026-04-24 10:31 | 49.55544 | 2.36648 | 36274 ft | 445 kts | 315° |
| 2026-04-24 10:32 | 49.60096 | 2.30213 | 36273 ft | 444 kts | 315° |
| 2026-04-24 10:32 | 49.64661 | 2.23808 | 36282 ft | 443 kts | 316° |
| 2026-04-24 10:33 | 49.69240 | 2.17441 | 36278 ft | 442 kts | 316° |
| 2026-04-24 10:33 | 49.73805 | 2.11097 | 36285 ft | 440 kts | 316° |
| 2026-04-24 10:34 | 49.78342 | 2.04770 | 36282 ft | 438 kts | 316° |
| 2026-04-24 10:34 | 49.82858 | 1.98456 | 36282 ft | 436 kts | 316° |
| 2026-04-24 10:35 | 49.84461 | 1.96212 | 36283 ft | 436 kts | 316° |
| 2026-04-24 10:35 | 49.88528 | 1.88990 | 36294 ft | 430 kts | 299° |
| 2026-04-24 10:36 | 49.90988 | 1.80607 | 36304 ft | 427 kts | 290° |
| 2026-04-24 10:36 | 49.93176 | 1.72051 | 36296 ft | 427 kts | 290° |
| 2026-04-24 10:37 | 49.95415 | 1.63520 | 36286 ft | 427 kts | 291° |
| 2026-04-24 10:37 | 49.97744 | 1.55053 | 36289 ft | 428 kts | 297° |
| 2026-04-24 10:38 | 50.01356 | 1.47715 | 36289 ft | 431 kts | 315° |
| 2026-04-24 10:38 | 50.05870 | 1.41589 | 36307 ft | 431 kts | 317° |
| 2026-04-24 10:39 | 50.10430 | 1.35518 | 36318 ft | 431 kts | 317° |
| 2026-04-24 10:39 | 50.14929 | 1.29434 | 36059 ft | 423 kts | 316° |
| 2026-04-24 10:39 | 50.16387 | 1.27445 | 35911 ft | 417 kts | 316° |
| 2026-04-24 10:40 | 50.16951 | 1.26674 | 35842 ft | 415 kts | 317° |
| 2026-04-24 10:40 | 50.18385 | 1.24715 | 35588 ft | 413 kts | 317° |
| 2026-04-24 10:40 | 50.20534 | 1.21767 | 35216 ft | 410 kts | 316° |
| 2026-04-24 10:40 | 50.22666 | 1.18836 | 34851 ft | 407 kts | 316° |
| 2026-04-24 10:41 | 50.24781 | 1.15927 | 34475 ft | 404 kts | 316° |
| 2026-04-24 10:41 | 50.26885 | 1.13029 | 34087 ft | 401 kts | 316° |
| 2026-04-24 10:41 | 50.28971 | 1.10154 | 33686 ft | 399 kts | 316° |
| 2026-04-24 10:41 | 50.31045 | 1.07293 | 33302 ft | 396 kts | 316° |
| 2026-04-24 10:42 | 50.33100 | 1.04455 | 32945 ft | 393 kts | 316° |
| 2026-04-24 10:42 | 50.35137 | 1.01637 | 32583 ft | 390 kts | 316° |
| 2026-04-24 10:42 | 50.37161 | 0.98834 | 32224 ft | 387 kts | 316° |
| 2026-04-24 10:42 | 50.39168 | 0.96051 | 31874 ft | 384 kts | 316° |
| 2026-04-24 10:43 | 50.41160 | 0.93287 | 31522 ft | 382 kts | 316° |
| 2026-04-24 10:43 | 50.43115 | 0.90571 | 31216 ft | 379 kts | 315° |
| 2026-04-24 10:43 | 50.45112 | 0.87802 | 30860 ft | 377 kts | 316° |
| 2026-04-24 10:43 | 50.47097 | 0.85138 | 30539 ft | 374 kts | 317° |
| 2026-04-24 10:44 | 50.49057 | 0.82547 | 30172 ft | 372 kts | 317° |
| 2026-04-24 10:44 | 50.51030 | 0.79935 | 29798 ft | 369 kts | 316° |
| 2026-04-24 10:44 | 50.52978 | 0.77342 | 29448 ft | 365 kts | 316° |
| 2026-04-24 10:44 | 50.54282 | 0.75601 | 29195 ft | 364 kts | 316° |
| 2026-04-24 10:45 | 50.54978 | 0.74670 | 29076 ft | 362 kts | 316° |
| 2026-04-24 10:45 | 50.56792 | 0.72253 | 28714 ft | 360 kts | 316° |
| 2026-04-24 10:45 | 50.58699 | 0.69714 | 28340 ft | 358 kts | 316° |
| 2026-04-24 10:45 | 50.60591 | 0.67194 | 27996 ft | 355 kts | 316° |
| 2026-04-24 10:46 | 50.62473 | 0.64684 | 27642 ft | 353 kts | 316° |
| 2026-04-24 10:46 | 50.64339 | 0.62191 | 27305 ft | 351 kts | 316° |
| 2026-04-24 10:46 | 50.66195 | 0.59709 | 26980 ft | 349 kts | 315° |
| 2026-04-24 10:46 | 50.68038 | 0.57240 | 26635 ft | 347 kts | 315° |
| 2026-04-24 10:47 | 50.69876 | 0.54776 | 26298 ft | 346 kts | 315° |
| 2026-04-24 10:47 | 50.71700 | 0.52328 | 25963 ft | 344 kts | 315° |
| 2026-04-24 10:47 | 50.73520 | 0.49882 | 25627 ft | 343 kts | 315° |
| 2026-04-24 10:47 | 50.75333 | 0.47444 | 25294 ft | 342 kts | 315° |
| 2026-04-24 10:48 | 50.77140 | 0.45012 | 24966 ft | 341 kts | 315° |
| 2026-04-24 10:48 | 50.78945 | 0.42579 | 24620 ft | 341 kts | 315° |
| 2026-04-24 10:48 | 50.80751 | 0.40140 | 24225 ft | 343 kts | 315° |
| 2026-04-24 10:48 | 50.82563 | 0.37689 | 23882 ft | 342 kts | 315° |
| 2026-04-24 10:49 | 50.84372 | 0.35239 | 23488 ft | 342 kts | 315° |
| 2026-04-24 10:49 | 50.86174 | 0.32797 | 23144 ft | 340 kts | 315° |
| 2026-04-24 10:49 | 50.87967 | 0.30364 | 22810 ft | 338 kts | 315° |
| 2026-04-24 10:49 | 50.89147 | 0.28762 | 22589 ft | 337 kts | 316° |
| 2026-04-24 10:50 | 50.89739 | 0.27957 | 22479 ft | 337 kts | 316° |
| 2026-04-24 10:50 | 50.91219 | 0.25943 | 22204 ft | 336 kts | 316° |
| 2026-04-24 10:50 | 50.92984 | 0.23541 | 21885 ft | 334 kts | 316° |
| 2026-04-24 10:50 | 50.94742 | 0.21145 | 21560 ft | 332 kts | 316° |
| 2026-04-24 10:51 | 50.96469 | 0.18791 | 21256 ft | 331 kts | 316° |
| 2026-04-24 10:51 | 50.98210 | 0.16414 | 20946 ft | 329 kts | 316° |
| 2026-04-24 10:51 | 50.99942 | 0.14047 | 20642 ft | 328 kts | 316° |
| 2026-04-24 10:51 | 51.01670 | 0.11691 | 20343 ft | 327 kts | 317° |
| 2026-04-24 10:52 | 51.03463 | 0.09510 | 20205 ft | 323 kts | 322° |
| 2026-04-24 10:52 | 51.05324 | 0.07457 | 20077 ft | 331 kts | 323° |
| 2026-04-24 10:52 | 51.07257 | 0.05368 | 19933 ft | 339 kts | 324° |
| 2026-04-24 10:52 | 51.09223 | 0.03242 | 19771 ft | 343 kts | 324° |
| 2026-04-24 10:53 | 51.11185 | 0.01106 | 19617 ft | 341 kts | 323° |
| 2026-04-24 10:53 | 51.13134 | -0.01030 | 19461 ft | 339 kts | 323° |
| 2026-04-24 10:53 | 51.15067 | -0.03160 | 19299 ft | 337 kts | 323° |
| 2026-04-24 10:53 | 51.16992 | -0.05290 | 19138 ft | 336 kts | 323° |
| 2026-04-24 10:54 | 51.18897 | -0.07405 | 18995 ft | 334 kts | 323° |
| 2026-04-24 10:54 | 51.20809 | -0.09532 | 18845 ft | 334 kts | 323° |
| 2026-04-24 10:54 | 51.22714 | -0.11654 | 18698 ft | 334 kts | 323° |
| 2026-04-24 10:54 | 51.23960 | -0.13044 | 18591 ft | 334 kts | 323° |
| 2026-04-24 10:55 | 51.24813 | -0.13996 | 18510 ft | 334 kts | 323° |
| 2026-04-24 10:55 | 51.26718 | -0.16123 | 18353 ft | 334 kts | 323° |
| 2026-04-24 10:55 | 51.28624 | -0.18254 | 18187 ft | 334 kts | 323° |
| 2026-04-24 10:55 | 51.30524 | -0.20379 | 18043 ft | 334 kts | 323° |
| 2026-04-24 10:56 | 51.32435 | -0.22520 | 17889 ft | 334 kts | 323° |
| 2026-04-24 10:56 | 51.34335 | -0.24652 | 17739 ft | 333 kts | 323° |
| 2026-04-24 10:56 | 51.36234 | -0.26781 | 17585 ft | 332 kts | 323° |
| 2026-04-24 10:56 | 51.38122 | -0.28901 | 17438 ft | 331 kts | 323° |
| 2026-04-24 10:57 | 51.39995 | -0.31007 | 17348 ft | 328 kts | 323° |
| 2026-04-24 10:57 | 51.41924 | -0.32925 | 17331 ft | 327 kts | 338° |
| 2026-04-24 10:57 | 51.44110 | -0.33541 | 17355 ft | 316 kts | 3° |
| 2026-04-24 10:57 | 51.46208 | -0.32852 | 17333 ft | 302 kts | 24° |
| 2026-04-24 10:58 | 51.48074 | -0.31503 | 17338 ft | 289 kts | 27° |
| 2026-04-24 10:58 | 51.49846 | -0.30124 | 17328 ft | 277 kts | 28° |
| 2026-04-24 10:58 | 51.51552 | -0.28781 | 17330 ft | 270 kts | 28° |
| 2026-04-24 10:58 | 51.53261 | -0.27441 | 17120 ft | 278 kts | 27° |
| 2026-04-24 10:59 | 51.55035 | -0.26059 | 16905 ft | 294 kts | 27° |
| 2026-04-24 10:59 | 51.56963 | -0.24562 | 16672 ft | 316 kts | 27° |
| 2026-04-24 10:59 | 51.58961 | -0.23021 | 16409 ft | 319 kts | 27° |
| 2026-04-24 10:59 | 51.60320 | -0.21977 | 16204 ft | 321 kts | 27° |
| 2026-04-24 11:00 | 51.61209 | -0.21293 | 16057 ft | 321 kts | 27° |
| 2026-04-24 11:00 | 51.63218 | -0.19748 | 15763 ft | 319 kts | 27° |
| 2026-04-24 11:00 | 51.65217 | -0.18210 | 15473 ft | 317 kts | 27° |
| 2026-04-24 11:00 | 51.67201 | -0.16682 | 15170 ft | 316 kts | 27° |
| 2026-04-24 11:01 | 51.69297 | -0.15654 | 14857 ft | 317 kts | 5° |
| 2026-04-24 11:01 | 51.71470 | -0.16062 | 14579 ft | 316 kts | 340° |
| 2026-04-24 11:01 | 51.73346 | -0.17850 | 14296 ft | 314 kts | 316° |
| 2026-04-24 11:01 | 51.74592 | -0.20693 | 13983 ft | 310 kts | 291° |
| 2026-04-24 11:02 | 51.75117 | -0.24039 | 13697 ft | 306 kts | 278° |
| 2026-04-24 11:02 | 51.75422 | -0.27427 | 13350 ft | 306 kts | 276° |
| 2026-04-24 11:02 | 51.75697 | -0.30829 | 12905 ft | 304 kts | 276° |
| 2026-04-24 11:02 | 51.75958 | -0.34184 | 12499 ft | 299 kts | 276° |
| 2026-04-24 11:03 | 51.76209 | -0.37500 | 12084 ft | 296 kts | 276° |
| 2026-04-24 11:03 | 51.76454 | -0.40773 | 11687 ft | 292 kts | 276° |
| 2026-04-24 11:03 | 51.76691 | -0.44015 | 11242 ft | 289 kts | 276° |
| 2026-04-24 11:03 | 51.76920 | -0.47227 | 10855 ft | 287 kts | 276° |
| 2026-04-24 11:04 | 51.77139 | -0.50409 | 10465 ft | 284 kts | 274° |
| 2026-04-24 11:04 | 51.77030 | -0.53564 | 10055 ft | 281 kts | 258° |
| 2026-04-24 11:04 | 51.76634 | -0.56629 | 9662 ft | 278 kts | 256° |
| 2026-04-24 11:04 | 51.76209 | -0.59662 | 9236 ft | 276 kts | 256° |
| 2026-04-24 11:05 | 51.75781 | -0.62673 | 8825 ft | 275 kts | 256° |
| 2026-04-24 11:05 | 51.75354 | -0.65674 | 8440 ft | 274 kts | 256° |
| 2026-04-24 11:05 | 51.74925 | -0.68663 | 8034 ft | 273 kts | 256° |
| 2026-04-24 11:05 | 51.74498 | -0.71638 | 7644 ft | 272 kts | 256° |
| 2026-04-24 11:06 | 51.74072 | -0.74604 | 7251 ft | 270 kts | 256° |
| 2026-04-24 11:06 | 51.73649 | -0.77555 | 6851 ft | 270 kts | 256° |
| 2026-04-24 11:06 | 51.73231 | -0.80498 | 6440 ft | 269 kts | 257° |
| 2026-04-24 11:06 | 51.73138 | -0.83476 | 6009 ft | 267 kts | 282° |
| 2026-04-24 11:07 | 51.75553 | -0.87314 | 5271 ft | 247 kts | 356° |
| 2026-04-24 11:07 | 51.77149 | -0.86820 | 4982 ft | 231 kts | 35° |
| 2026-04-24 11:07 | 51.78222 | -0.85027 | 4754 ft | 219 kts | 58° |
| 2026-04-24 11:08 | 51.78981 | -0.82939 | 4496 ft | 213 kts | 64° |
| 2026-04-24 11:08 | 51.79611 | -0.80803 | 4238 ft | 209 kts | 68° |
| 2026-04-24 11:08 | 51.80180 | -0.78671 | 4038 ft | 203 kts | 70° |
| 2026-04-24 11:08 | 51.80638 | -0.76585 | 3987 ft | 190 kts | 74° |
| 2026-04-24 11:09 | 51.81009 | -0.74606 | 3963 ft | 181 kts | 75° |
| 2026-04-24 11:09 | 51.81345 | -0.72669 | 4001 ft | 180 kts | 76° |
| 2026-04-24 11:09 | 51.81682 | -0.70694 | 3979 ft | 183 kts | 76° |
| 2026-04-24 11:09 | 51.82020 | -0.68710 | 3967 ft | 184 kts | 76° |
| 2026-04-24 11:10 | 51.82358 | -0.66714 | 3962 ft | 184 kts | 76° |
| 2026-04-24 11:10 | 51.82696 | -0.64712 | 3843 ft | 188 kts | 76° |
| 2026-04-24 11:10 | 51.83036 | -0.62687 | 3632 ft | 186 kts | 75° |
| 2026-04-24 11:10 | 51.83381 | -0.60678 | 3343 ft | 182 kts | 76° |
| 2026-04-24 11:11 | 51.83699 | -0.58812 | 3172 ft | 169 kts | 76° |
| 2026-04-24 11:11 | 51.84002 | -0.57042 | 2915 ft | 157 kts | 75° |
| 2026-04-24 11:11 | 51.84293 | -0.55330 | 2700 ft | 159 kts | 75° |
| 2026-04-24 11:11 | 51.84583 | -0.53641 | 2506 ft | 153 kts | 76° |
| 2026-04-24 11:12 | 51.84864 | -0.51988 | 2263 ft | 153 kts | 75° |
| 2026-04-24 11:12 | 51.85145 | -0.50332 | 2055 ft | 153 kts | 76° |
| 2026-04-24 11:12 | 51.85426 | -0.48705 | 1862 ft | 149 kts | 76° |
| 2026-04-24 11:12 | 51.85696 | -0.47120 | 1643 ft | 144 kts | 75° |
| 2026-04-24 11:13 | 51.85961 | -0.45582 | 1467 ft | 142 kts | 75° |
| 2026-04-24 11:13 | 51.86220 | -0.44064 | 1279 ft | 141 kts | 75° |
| 2026-04-24 11:13 | 51.86469 | -0.42537 | 1079 ft | 140 kts | 73° |
| 2026-04-24 11:13 | 51.86744 | -0.41009 | 916 ft | 144 kts | 74° |
| 2026-04-24 11:14 | 51.87018 | -0.39417 | 696 ft | 146 kts | 73° |
| 2026-04-24 11:14 | 51.87285 | -0.37869 | 527 ft | 138 kts | 73° |
| 2026-04-24 11:14 | 51.87496 | -0.36656 | 525 ft | 82 kts | 74° |
| 2026-04-24 11:14 | 51.87592 | -0.36084 | 515 ft | 32 kts | 75° |
| 2026-04-24 11:15 | 51.87678 | -0.35926 | 515 ft | 19 kts | 347° |
| 2026-04-24 11:15 | 51.87779 | -0.36045 | 516 ft | 19 kts | 279° |
| 2026-04-24 11:15 | 51.87754 | -0.36249 | 517 ft | 18 kts | 255° |
| 2026-04-24 11:15 | 51.87721 | -0.36444 | 518 ft | 18 kts | 254° |
| 2026-04-24 11:16 | 51.87688 | -0.36631 | 520 ft | 17 kts | 254° |
| 2026-04-24 11:16 | 51.87656 | -0.36811 | 524 ft | 16 kts | 254° |
| 2026-04-24 11:16 | 51.87625 | -0.36990 | 521 ft | 19 kts | 255° |
| 2026-04-24 11:16 | 51.87584 | -0.37229 | 521 ft | 22 kts | 254° |
| 2026-04-24 11:17 | 51.87614 | -0.37439 | 522 ft | 20 kts | 320° |
| 2026-04-24 11:17 | 51.87709 | -0.37601 | 518 ft | 21 kts | 295° |
| 2026-04-24 11:17 | 51.87768 | -0.37808 | 522 ft | 20 kts | 295° |
| 2026-04-24 11:17 | 51.87844 | -0.37988 | 522 ft | 19 kts | 328° |
| 2026-04-24 11:18 | 51.87971 | -0.37990 | 522 ft | 19 kts | 28° |
| 2026-04-24 11:18 | 51.88057 | -0.37886 | 522 ft | 14 kts | 38° |
| 2026-04-24 11:18 | 51.88108 | -0.37821 | 522 ft | 0 kts | 39° |
| 2026-04-24 11:18 | 51.88116 | -0.37808 | 522 ft | 7 kts | 43° |
| 2026-04-24 11:19 | 51.88155 | -0.37727 | 522 ft | 6 kts | 78° |
| 2026-04-24 11:19 | 51.88150 | -0.37719 | 522 ft | 3 kts | 134° |
| 2026-04-24 11:19 | 51.88122 | -0.37707 | 522 ft | 4 kts | 169° |
| 2026-04-24 11:19 | 51.88113 | -0.37705 | 522 ft | 1 kts | 170° |
| 2026-04-24 11:20 | 51.88109 | -0.37704 | 522 ft | 0 kts | 170° |